New Harbor, ME (Heathkit)

43° 52' 34"N, 69° 29' 40"W, Elevation 65 ft.
Eastern Time

Hourly observations for the last 72 hours

Date Time Temperature (°F) Humi-
dity

(%)
Wind
(mph)
Pressure Rain (in)
Air Dew 6 Hour 1 Hr 3 Hr 6 Hr Day
Alt
(in)
Sea
Level

(mb)
Max Min
2 23:00 43 -52 0 ESE 8 G 22 29.33 993.3 0.06 0.12 1.33
2 22:00 44 -51 0 SE 9 G 18 29.33 993.3 0.04 1.27
2 21:00 45 -50 0 SE 8 G 15 29.34 993.6 0.02 1.23
2 20:00 45 -50 45 37 0 SE 10 G 20 29.32 992.9 0.01 0.22 0.73 1.21
2 19:00 45 -50 0 SSE 8 G 20 29.31 992.6 0.06 1.20
2 18:00 45 -50 0 S 6 G 11 29.31 992.6 0.15 1.14
2 17:00 44 -51 0 S 4 G 12 29.30 992.2 0.14 0.51 0.99
2 16:00 43 -52 0 SSE 9 G 20 29.29 991.9 0.20 0.85
2 15:00 43 -52 0 S 7 G 20 29.30 992.2 0.17 0.65
2 14:00 42 -52 42 35 0 S 8 G 17 29.31 992.6 0.10 0.22 0.34 0.48
2 13:00 41 -53 0 S 9 G 19 29.33 993.3 0.07 0.38
2 12:00 41 -53 0 S 10 G 27 29.34 993.6 0.05 0.31
2 11:00 40 -54 0 S 10 G 20 29.36 994.3 0.06 0.12 0.26
2 10:00 39 -54 0 SSE 7 G 18 29.38 995.0 0.04 0.20
2 09:00 39 -54 0 SE 7 G 18 29.40 995.6 0.02 0.16
2 08:00 39 -54 39 32 0 SSE 6 G 16 29.41 996.0 0.02 0.08 0.11 0.14
2 07:00 38 -55 0 SSE 7 G 18 29.43 996.6 0.04 0.12
2 06:00 38 -55 0 S 6 G 15 29.43 996.6 0.02 0.08
2 05:00 38 -55 0 SSE 7 G 14 29.45 997.3 0.03 0.06
2 04:00 37 -55 0 S 6 G 16 29.45 997.3 0.02 0.06
2 03:00 37 -55 0 SSE 7 G 21 29.47 998.0 0.01 0.04
2 02:00 37 -55 40 32 0 S 10 G 20 29.50 999.0 0.01 0.07 0.12 0.03
2 01:00 37 -55 0 S 8 G 18 29.53 1000.0 0.02 0.02
2 00:00 38 -55 0 S 5 G 17 29.56 1001.0 0.04 0.08
1 23:00 38 -55 0 S 8 G 16 29.59 1002.1 0.03 0.05 0.05
1 22:00 38 -55 0 SSE 6 G 10 29.59 1002.1 0.02 0.02
1 21:00 40 -54 0 S 8 G 18 29.60 1002.4 0.00
1 20:00 40 -54 44 36 0 SE 6 G 15 29.62 1003.1 0.00
1 19:00 41 -53 0 SE 5 G 16 29.62 1003.1 0.00
1 18:00 43 -52 0 S 6 G 14 29.63 1003.4 0.00
1 17:00 43 -52 0 S 5 G 12 29.64 1003.8 0.00
1 16:00 43 -52 0 SE 8 G 14 29.64 1003.8 0.00
1 15:00 44 -51 0 SE 5 G 13 29.64 1003.8 0.00
1 14:00 43 -52 44 32 0 ESE 8 G 17 29.66 1004.4 0.00
1 13:00 43 -52 0 E 9 G 20 29.68 1005.1 0.00
1 12:00 42 -52 0 ESE 6 G 15 29.70 1005.8 0.00
1 11:00 40 -54 0 ESE 6 G 14 29.73 1006.8 0.00
1 10:00 38 -55 0 ESE 8 G 16 29.73 1006.8 0.00
1 09:00 37 -55 0 SE 9 G 14 29.74 1007.1 0.00
1 08:00 35 -57 35 28 0 SE 5 G 10 29.77 1008.2 0.00
1 07:00 34 -57 0 SE 3 G 8 29.79 1008.8 0.00
1 06:00 33 -58 0 SW 1 G 4 29.82 1009.9 0.00
1 05:00 33 -58 0 SE 2 G 5 29.81 1009.5 0.00
1 04:00 32 -59 0 S 2 G 6 29.81 1009.5 0.00
1 03:00 32 -59 0 S 2 G 4 29.83 1010.2 0.00
1 02:00 34 -57 38 31 0 ESE 4 G 10 29.85 1010.9 0.00
1 01:00 35 -57 0 SE 2 G 5 29.86 1011.2 0.00
1 00:00 38 -55 0 E 2 G 6 29.86 1011.2 0.00
31 23:00 38 -55 0 E 2 G 5 29.88 1011.9 0.00
31 22:00 38 -55 0 ESE 3 G 4 29.89 1012.2 0.00
31 21:00 36 -56 0 SSE 2 G 7 29.88 1011.9 0.00
31 20:00 35 -57 43 34 0 S 2 G 4 29.89 1012.2 0.00
31 19:00 39 -54 0 SE 3 G 5 29.90 1012.6 0.00
31 18:00 42 -52 0 ESE 7 G 14 29.91 1012.9 0.00
31 17:00 42 -52 0 ESE 7 G 15 29.90 1012.6 0.00
31 16:00 42 -52 0 SE 4 G 15 29.89 1012.2 0.00
31 15:00 41 -53 0 ESE 9 G 15 29.88 1011.9 0.00
31 14:00 40 -54 40 27 0 SSE 7 G 18 29.90 1012.6 0.00
31 13:00 35 -57 0 S 4 G 16 29.93 1013.6 0.00
31 12:00 34 -57 0 ESE 6 G 12 29.95 1014.3 0.00
31 11:00 32 -59 0 SE 8 G 15 29.98 1015.3 0.00
31 10:00 31 -59 0 SE 7 G 15 29.99 1015.6 0.00
31 09:00 31 -59 0 SE 6 G 11 30.00 1016.0 0.00
31 08:00 30 -60 33 27 0 SE 6 G 12 29.99 1015.6 0.00
31 07:00 30 -60 0 SSE 6 G 10 29.99 1015.6 0.00
31 06:00 30 -60 0 SSE 5 G 9 29.97 1014.9 0.00
31 05:00 31 -59 0 SSE 5 G 13 29.96 1014.6 0.00
31 04:00 32 -59 0 S 5 G 14 29.95 1014.3 0.00
31 03:00 33 -58 0 SSE 3 G 10 29.96 1014.6 0.00
31 02:00 33 -58 33 28 0 SSE 5 G 10 29.97 1014.9 0.00
31 01:00 33 -58 0 S 4 G 9 29.97 1014.9 0.00
31 00:00 33 -58 0 S 4 G 10 29.97 1014.9 0.18

Data generated by WxSolution Version 1.9.1.8, Build 2020.02.16.